sensor_id;sensor_type;location;lat;lon;timestamp;P1;durP1;ratioP1;P2;durP2;ratioP2
27013;SDS011;14556;52.222;4.510;2023-03-01T00:01:04;17.27;;;7.93;;
27013;SDS011;14556;52.222;4.510;2023-03-01T00:03:31;11.70;;;7.50;;
27013;SDS011;14556;52.222;4.510;2023-03-01T00:05:58;10.80;;;7.53;;
27013;SDS011;14556;52.222;4.510;2023-03-01T00:08:24;13.77;;;6.83;;
27013;SDS011;14556;52.222;4.510;2023-03-01T00:13:51;11.83;;;6.20;;
27013;SDS011;14556;52.222;4.510;2023-03-01T00:16:19;16.13;;;7.40;;
27013;SDS011;14556;52.222;4.510;2023-03-01T00:18:46;13.83;;;7.03;;
27013;SDS011;14556;52.222;4.510;2023-03-01T00:21:12;12.47;;;7.37;;
27013;SDS011;14556;52.222;4.510;2023-03-01T00:23:40;11.97;;;7.23;;
27013;SDS011;14556;52.222;4.510;2023-03-01T00:26:08;12.03;;;7.07;;
27013;SDS011;14556;52.222;4.510;2023-03-01T00:28:34;13.97;;;7.27;;
27013;SDS011;14556;52.222;4.510;2023-03-01T00:31:05;14.13;;;7.47;;
27013;SDS011;14556;52.222;4.510;2023-03-01T00:33:32;13.27;;;7.27;;
27013;SDS011;14556;52.222;4.510;2023-03-01T00:35:58;10.70;;;6.83;;
27013;SDS011;14556;52.222;4.510;2023-03-01T00:38:25;12.73;;;7.63;;
27013;SDS011;14556;52.222;4.510;2023-03-01T00:40:51;14.73;;;7.43;;
27013;SDS011;14556;52.222;4.510;2023-03-01T00:43:18;11.10;;;6.63;;
27013;SDS011;14556;52.222;4.510;2023-03-01T00:45:44;12.63;;;7.93;;
27013;SDS011;14556;52.222;4.510;2023-03-01T00:48:11;13.53;;;7.60;;
27013;SDS011;14556;52.222;4.510;2023-03-01T00:50:37;13.67;;;7.63;;
27013;SDS011;14556;52.222;4.510;2023-03-01T00:53:04;14.07;;;7.50;;
27013;SDS011;14556;52.222;4.510;2023-03-01T00:55:31;14.83;;;8.20;;
27013;SDS011;14556;52.222;4.510;2023-03-01T00:57:58;12.43;;;7.20;;
27013;SDS011;14556;52.222;4.510;2023-03-01T01:00:24;14.43;;;7.90;;
27013;SDS011;14556;52.222;4.510;2023-03-01T01:02:53;17.40;;;8.50;;
27013;SDS011;14556;52.222;4.510;2023-03-01T01:05:20;15.93;;;8.20;;
27013;SDS011;14556;52.222;4.510;2023-03-01T01:07:47;12.77;;;8.20;;
27013;SDS011;14556;52.222;4.510;2023-03-01T01:10:14;14.73;;;8.53;;
27013;SDS011;14556;52.222;4.510;2023-03-01T01:12:44;16.33;;;8.57;;
27013;SDS011;14556;52.222;4.510;2023-03-01T01:15:10;12.87;;;8.50;;
27013;SDS011;14556;52.222;4.510;2023-03-01T01:17:39;15.10;;;8.30;;
27013;SDS011;14556;52.222;4.510;2023-03-01T01:20:05;20.17;;;9.07;;
27013;SDS011;14556;52.222;4.510;2023-03-01T01:22:32;13.53;;;7.90;;
27013;SDS011;14556;52.222;4.510;2023-03-01T01:24:58;14.77;;;8.83;;
27013;SDS011;14556;52.222;4.510;2023-03-01T01:27:25;15.87;;;8.67;;
27013;SDS011;14556;52.222;4.510;2023-03-01T01:29:52;16.23;;;8.73;;
27013;SDS011;14556;52.222;4.510;2023-03-01T01:32:18;16.60;;;9.20;;
27013;SDS011;14556;52.222;4.510;2023-03-01T01:34:45;16.90;;;9.50;;
27013;SDS011;14556;52.222;4.510;2023-03-01T01:37:12;17.60;;;9.40;;
27013;SDS011;14556;52.222;4.510;2023-03-01T01:39:39;17.67;;;9.30;;
27013;SDS011;14556;52.222;4.510;2023-03-01T01:42:05;19.27;;;9.33;;
27013;SDS011;14556;52.222;4.510;2023-03-01T01:44:33;19.33;;;9.87;;
27013;SDS011;14556;52.222;4.510;2023-03-01T01:47:13;15.17;;;9.00;;
27013;SDS011;14556;52.222;4.510;2023-03-01T01:49:42;15.93;;;9.03;;
27013;SDS011;14556;52.222;4.510;2023-03-01T01:52:19;14.47;;;9.27;;
27013;SDS011;14556;52.222;4.510;2023-03-01T01:57:24;17.77;;;9.00;;
27013;SDS011;14556;52.222;4.510;2023-03-01T01:59:53;15.90;;;9.47;;
27013;SDS011;14556;52.222;4.510;2023-03-01T02:02:21;16.60;;;9.23;;
27013;SDS011;14556;52.222;4.510;2023-03-01T02:04:48;16.00;;;8.63;;
27013;SDS011;14556;52.222;4.510;2023-03-01T02:07:17;21.57;;;10.63;;
27013;SDS011;14556;52.222;4.510;2023-03-01T02:09:45;15.90;;;8.80;;
27013;SDS011;14556;52.222;4.510;2023-03-01T02:12:12;17.83;;;9.77;;
27013;SDS011;14556;52.222;4.510;2023-03-01T02:14:38;16.07;;;9.30;;
27013;SDS011;14556;52.222;4.510;2023-03-01T02:17:05;15.40;;;9.03;;
27013;SDS011;14556;52.222;4.510;2023-03-01T02:24:42;21.70;;;9.57;;
27013;SDS011;14556;52.222;4.510;2023-03-01T02:27:12;20.40;;;9.93;;
27013;SDS011;14556;52.222;4.510;2023-03-01T02:29:38;16.00;;;9.30;;
27013;SDS011;14556;52.222;4.510;2023-03-01T02:32:05;17.47;;;9.77;;
27013;SDS011;14556;52.222;4.510;2023-03-01T02:34:32;19.47;;;10.00;;
27013;SDS011;14556;52.222;4.510;2023-03-01T02:37:09;17.67;;;10.00;;
27013;SDS011;14556;52.222;4.510;2023-03-01T02:39:46;17.60;;;9.77;;
27013;SDS011;14556;52.222;4.510;2023-03-01T02:42:18;18.07;;;10.73;;
27013;SDS011;14556;52.222;4.510;2023-03-01T02:44:48;17.13;;;9.97;;
27013;SDS011;14556;52.222;4.510;2023-03-01T02:47:15;16.60;;;9.53;;
27013;SDS011;14556;52.222;4.510;2023-03-01T02:49:41;17.60;;;9.80;;
27013;SDS011;14556;52.222;4.510;2023-03-01T02:52:21;20.97;;;10.23;;
27013;SDS011;14556;52.222;4.510;2023-03-01T02:57:18;16.20;;;9.53;;
27013;SDS011;14556;52.222;4.510;2023-03-01T02:59:45;18.87;;;10.50;;
27013;SDS011;14556;52.222;4.510;2023-03-01T03:02:23;17.13;;;9.53;;
27013;SDS011;14556;52.222;4.510;2023-03-01T03:05:11;20.43;;;10.33;;
27013;SDS011;14556;52.222;4.510;2023-03-01T03:07:39;20.80;;;9.70;;
27013;SDS011;14556;52.222;4.510;2023-03-01T03:10:07;16.13;;;9.33;;
27013;SDS011;14556;52.222;4.510;2023-03-01T03:12:33;16.10;;;9.60;;
27013;SDS011;14556;52.222;4.510;2023-03-01T03:14:59;14.87;;;8.83;;
27013;SDS011;14556;52.222;4.510;2023-03-01T03:17:26;19.83;;;9.70;;
27013;SDS011;14556;52.222;4.510;2023-03-01T03:19:52;21.80;;;11.00;;
27013;SDS011;14556;52.222;4.510;2023-03-01T03:22:18;17.90;;;10.20;;
27013;SDS011;14556;52.222;4.510;2023-03-01T03:24:45;16.23;;;9.73;;
27013;SDS011;14556;52.222;4.510;2023-03-01T03:27:11;20.23;;;9.93;;
27013;SDS011;14556;52.222;4.510;2023-03-01T03:29:37;21.23;;;10.70;;
27013;SDS011;14556;52.222;4.510;2023-03-01T03:32:04;18.63;;;10.00;;
27013;SDS011;14556;52.222;4.510;2023-03-01T03:34:30;24.97;;;11.10;;
27013;SDS011;14556;52.222;4.510;2023-03-01T03:36:57;23.20;;;11.33;;
27013;SDS011;14556;52.222;4.510;2023-03-01T03:39:25;19.93;;;11.10;;
27013;SDS011;14556;52.222;4.510;2023-03-01T03:41:53;20.60;;;11.30;;
27013;SDS011;14556;52.222;4.510;2023-03-01T03:44:21;21.20;;;12.27;;
27013;SDS011;14556;52.222;4.510;2023-03-01T03:46:47;18.83;;;11.10;;
27013;SDS011;14556;52.222;4.510;2023-03-01T03:49:13;24.57;;;11.63;;
27013;SDS011;14556;52.222;4.510;2023-03-01T03:51:40;20.33;;;10.83;;
27013;SDS011;14556;52.222;4.510;2023-03-01T03:54:06;24.03;;;11.07;;
27013;SDS011;14556;52.222;4.510;2023-03-01T03:56:32;20.23;;;11.13;;
27013;SDS011;14556;52.222;4.510;2023-03-01T03:59:00;19.10;;;11.30;;
27013;SDS011;14556;52.222;4.510;2023-03-01T04:01:26;22.40;;;11.37;;
27013;SDS011;14556;52.222;4.510;2023-03-01T04:03:53;24.40;;;12.67;;
27013;SDS011;14556;52.222;4.510;2023-03-01T04:06:20;21.57;;;12.00;;
27013;SDS011;14556;52.222;4.510;2023-03-01T04:08:47;20.47;;;10.97;;
27013;SDS011;14556;52.222;4.510;2023-03-01T04:11:17;23.27;;;11.73;;
27013;SDS011;14556;52.222;4.510;2023-03-01T04:13:52;19.60;;;10.97;;
27013;SDS011;14556;52.222;4.510;2023-03-01T04:16:19;19.87;;;11.07;;
27013;SDS011;14556;52.222;4.510;2023-03-01T04:18:46;19.40;;;10.93;;
27013;SDS011;14556;52.222;4.510;2023-03-01T04:21:12;21.40;;;10.87;;
27013;SDS011;14556;52.222;4.510;2023-03-01T04:23:38;23.23;;;11.53;;
27013;SDS011;14556;52.222;4.510;2023-03-01T04:26:06;22.10;;;11.90;;
27013;SDS011;14556;52.222;4.510;2023-03-01T04:28:34;27.73;;;13.97;;
27013;SDS011;14556;52.222;4.510;2023-03-01T04:31:03;23.47;;;12.50;;
27013;SDS011;14556;52.222;4.510;2023-03-01T04:33:42;28.47;;;13.90;;
27013;SDS011;14556;52.222;4.510;2023-03-01T04:36:10;26.70;;;13.73;;
27013;SDS011;14556;52.222;4.510;2023-03-01T04:38:37;26.77;;;12.83;;
27013;SDS011;14556;52.222;4.510;2023-03-01T04:41:04;24.20;;;13.10;;
27013;SDS011;14556;52.222;4.510;2023-03-01T04:43:30;26.17;;;12.00;;
27013;SDS011;14556;52.222;4.510;2023-03-01T04:46:03;27.73;;;14.33;;
27013;SDS011;14556;52.222;4.510;2023-03-01T04:48:30;28.00;;;13.80;;
27013;SDS011;14556;52.222;4.510;2023-03-01T04:50:58;26.93;;;12.27;;
27013;SDS011;14556;52.222;4.510;2023-03-01T04:53:25;27.07;;;12.70;;
27013;SDS011;14556;52.222;4.510;2023-03-01T04:55:51;24.90;;;12.87;;
27013;SDS011;14556;52.222;4.510;2023-03-01T04:58:17;27.77;;;13.73;;
27013;SDS011;14556;52.222;4.510;2023-03-01T05:00:44;26.67;;;13.33;;
27013;SDS011;14556;52.222;4.510;2023-03-01T05:03:10;28.23;;;13.87;;
27013;SDS011;14556;52.222;4.510;2023-03-01T05:05:37;26.17;;;14.20;;
27013;SDS011;14556;52.222;4.510;2023-03-01T05:08:05;29.10;;;13.67;;
27013;SDS011;14556;52.222;4.510;2023-03-01T05:10:33;30.87;;;14.50;;
27013;SDS011;14556;52.222;4.510;2023-03-01T05:13:01;27.97;;;14.70;;
27013;SDS011;14556;52.222;4.510;2023-03-01T05:15:28;27.60;;;15.00;;
27013;SDS011;14556;52.222;4.510;2023-03-01T05:17:56;27.80;;;14.57;;
27013;SDS011;14556;52.222;4.510;2023-03-01T05:20:25;27.67;;;14.00;;
27013;SDS011;14556;52.222;4.510;2023-03-01T05:22:53;26.20;;;13.50;;
27013;SDS011;14556;52.222;4.510;2023-03-01T05:25:20;27.50;;;13.87;;
27013;SDS011;14556;52.222;4.510;2023-03-01T05:27:47;28.93;;;14.53;;
27013;SDS011;14556;52.222;4.510;2023-03-01T05:30:14;29.57;;;14.33;;
27013;SDS011;14556;52.222;4.510;2023-03-01T05:32:44;27.07;;;13.83;;
27013;SDS011;14556;52.222;4.510;2023-03-01T05:35:12;26.03;;;14.00;;
27013;SDS011;14556;52.222;4.510;2023-03-01T05:37:43;28.67;;;15.00;;
27013;SDS011;14556;52.222;4.510;2023-03-01T05:40:11;26.90;;;14.60;;
27013;SDS011;14556;52.222;4.510;2023-03-01T05:42:47;27.57;;;14.57;;
27013;SDS011;14556;52.222;4.510;2023-03-01T05:45:14;34.50;;;16.30;;
27013;SDS011;14556;52.222;4.510;2023-03-01T05:47:42;37.43;;;16.97;;
27013;SDS011;14556;52.222;4.510;2023-03-01T05:50:13;34.20;;;16.07;;
27013;SDS011;14556;52.222;4.510;2023-03-01T05:53:06;34.60;;;15.10;;
27013;SDS011;14556;52.222;4.510;2023-03-01T05:55:34;25.97;;;14.23;;
27013;SDS011;14556;52.222;4.510;2023-03-01T05:58:02;29.40;;;14.20;;
27013;SDS011;14556;52.222;4.510;2023-03-01T06:00:29;25.47;;;13.30;;
27013;SDS011;14556;52.222;4.510;2023-03-01T06:02:56;19.20;;;10.87;;
27013;SDS011;14556;52.222;4.510;2023-03-01T06:05:23;23.83;;;12.83;;
27013;SDS011;14556;52.222;4.510;2023-03-01T06:07:49;27.33;;;13.00;;
27013;SDS011;14556;52.222;4.510;2023-03-01T06:10:16;23.13;;;12.43;;
27013;SDS011;14556;52.222;4.510;2023-03-01T06:12:43;22.33;;;10.33;;
27013;SDS011;14556;52.222;4.510;2023-03-01T06:15:11;23.47;;;10.73;;
27013;SDS011;14556;52.222;4.510;2023-03-01T06:17:38;21.53;;;11.27;;
27013;SDS011;14556;52.222;4.510;2023-03-01T06:20:05;22.97;;;12.43;;
27013;SDS011;14556;52.222;4.510;2023-03-01T06:22:32;20.67;;;11.50;;
27013;SDS011;14556;52.222;4.510;2023-03-01T06:24:59;25.77;;;11.67;;
27013;SDS011;14556;52.222;4.510;2023-03-01T06:27:25;21.50;;;9.50;;
27013;SDS011;14556;52.222;4.510;2023-03-01T06:29:52;15.00;;;9.40;;
27013;SDS011;14556;52.222;4.510;2023-03-01T06:32:19;21.13;;;10.10;;
27013;SDS011;14556;52.222;4.510;2023-03-01T06:34:46;20.63;;;9.73;;
27013;SDS011;14556;52.222;4.510;2023-03-01T06:37:12;14.57;;;9.77;;
27013;SDS011;14556;52.222;4.510;2023-03-01T06:39:38;14.90;;;9.53;;
27013;SDS011;14556;52.222;4.510;2023-03-01T06:42:05;16.53;;;9.53;;
27013;SDS011;14556;52.222;4.510;2023-03-01T06:44:31;15.77;;;9.90;;
27013;SDS011;14556;52.222;4.510;2023-03-01T06:46:57;17.23;;;10.27;;
27013;SDS011;14556;52.222;4.510;2023-03-01T06:49:24;17.37;;;11.03;;
27013;SDS011;14556;52.222;4.510;2023-03-01T06:51:50;20.67;;;11.80;;
27013;SDS011;14556;52.222;4.510;2023-03-01T06:54:17;17.07;;;9.97;;
27013;SDS011;14556;52.222;4.510;2023-03-01T06:56:46;19.77;;;11.63;;
27013;SDS011;14556;52.222;4.510;2023-03-01T06:59:13;19.97;;;11.77;;
27013;SDS011;14556;52.222;4.510;2023-03-01T07:01:39;20.63;;;12.00;;
27013;SDS011;14556;52.222;4.510;2023-03-01T07:04:06;22.10;;;11.93;;
27013;SDS011;14556;52.222;4.510;2023-03-01T07:06:32;17.30;;;10.77;;
27013;SDS011;14556;52.222;4.510;2023-03-01T07:09:00;18.10;;;10.37;;
27013;SDS011;14556;52.222;4.510;2023-03-01T07:11:26;19.77;;;10.30;;
27013;SDS011;14556;52.222;4.510;2023-03-01T07:13:52;18.27;;;10.83;;
27013;SDS011;14556;52.222;4.510;2023-03-01T07:16:20;17.47;;;11.20;;
27013;SDS011;14556;52.222;4.510;2023-03-01T07:18:46;19.17;;;10.83;;
27013;SDS011;14556;52.222;4.510;2023-03-01T07:21:14;19.80;;;10.60;;
27013;SDS011;14556;52.222;4.510;2023-03-01T07:23:41;20.60;;;10.33;;
27013;SDS011;14556;52.222;4.510;2023-03-01T07:26:07;21.13;;;10.43;;
27013;SDS011;14556;52.222;4.510;2023-03-01T07:28:33;19.13;;;10.20;;
27013;SDS011;14556;52.222;4.510;2023-03-01T07:31:05;17.23;;;10.83;;
27013;SDS011;14556;52.222;4.510;2023-03-01T07:33:32;20.67;;;10.80;;
27013;SDS011;14556;52.222;4.510;2023-03-01T07:35:59;22.30;;;13.00;;
27013;SDS011;14556;52.222;4.510;2023-03-01T07:38:26;20.40;;;11.47;;
27013;SDS011;14556;52.222;4.510;2023-03-01T07:40:52;25.97;;;12.03;;
27013;SDS011;14556;52.222;4.510;2023-03-01T07:43:19;30.07;;;13.53;;
27013;SDS011;14556;52.222;4.510;2023-03-01T07:45:46;25.40;;;13.93;;
27013;SDS011;14556;52.222;4.510;2023-03-01T07:48:13;24.93;;;13.60;;
27013;SDS011;14556;52.222;4.510;2023-03-01T07:50:39;31.97;;;15.77;;
27013;SDS011;14556;52.222;4.510;2023-03-01T07:53:05;38.93;;;17.67;;
27013;SDS011;14556;52.222;4.510;2023-03-01T07:55:32;45.43;;;20.47;;
27013;SDS011;14556;52.222;4.510;2023-03-01T07:57:58;42.07;;;21.80;;
27013;SDS011;14556;52.222;4.510;2023-03-01T08:00:24;38.83;;;20.47;;
27013;SDS011;14556;52.222;4.510;2023-03-01T08:02:51;49.27;;;22.50;;
27013;SDS011;14556;52.222;4.510;2023-03-01T08:05:17;54.67;;;26.60;;
27013;SDS011;14556;52.222;4.510;2023-03-01T08:07:43;31.37;;;17.83;;
27013;SDS011;14556;52.222;4.510;2023-03-01T08:10:10;38.33;;;18.30;;
27013;SDS011;14556;52.222;4.510;2023-03-01T08:12:37;34.00;;;19.53;;
27013;SDS011;14556;52.222;4.510;2023-03-01T08:15:03;56.67;;;26.80;;
27013;SDS011;14556;52.222;4.510;2023-03-01T08:17:29;35.00;;;18.53;;
27013;SDS011;14556;52.222;4.510;2023-03-01T08:19:56;62.00;;;29.03;;
27013;SDS011;14556;52.222;4.510;2023-03-01T08:22:22;66.00;;;29.43;;
27013;SDS011;14556;52.222;4.510;2023-03-01T08:24:48;44.70;;;21.73;;
27013;SDS011;14556;52.222;4.510;2023-03-01T08:27:15;61.07;;;28.80;;
27013;SDS011;14556;52.222;4.510;2023-03-01T08:29:42;54.53;;;25.90;;
27013;SDS011;14556;52.222;4.510;2023-03-01T08:32:08;58.43;;;26.43;;
27013;SDS011;14556;52.222;4.510;2023-03-01T08:34:35;58.73;;;24.27;;
27013;SDS011;14556;52.222;4.510;2023-03-01T08:37:01;61.43;;;24.77;;
27013;SDS011;14556;52.222;4.510;2023-03-01T08:39:28;56.93;;;24.47;;
27013;SDS011;14556;52.222;4.510;2023-03-01T08:41:54;59.87;;;23.77;;
27013;SDS011;14556;52.222;4.510;2023-03-01T08:44:21;60.40;;;26.17;;
27013;SDS011;14556;52.222;4.510;2023-03-01T08:46:47;55.73;;;26.80;;
27013;SDS011;14556;52.222;4.510;2023-03-01T08:49:17;59.83;;;26.03;;
27013;SDS011;14556;52.222;4.510;2023-03-01T08:51:44;62.27;;;24.67;;
27013;SDS011;14556;52.222;4.510;2023-03-01T08:54:12;62.87;;;24.53;;
27013;SDS011;14556;52.222;4.510;2023-03-01T08:56:39;54.57;;;21.53;;
27013;SDS011;14556;52.222;4.510;2023-03-01T08:59:05;53.70;;;21.23;;
27013;SDS011;14556;52.222;4.510;2023-03-01T09:01:31;52.63;;;21.23;;
27013;SDS011;14556;52.222;4.510;2023-03-01T09:03:58;51.30;;;19.33;;
27013;SDS011;14556;52.222;4.510;2023-03-01T09:06:25;52.10;;;22.37;;
27013;SDS011;14556;52.222;4.510;2023-03-01T09:08:51;52.60;;;21.90;;
27013;SDS011;14556;52.222;4.510;2023-03-01T09:11:19;48.03;;;21.20;;
27013;SDS011;14556;52.222;4.510;2023-03-01T09:13:46;52.90;;;21.90;;
27013;SDS011;14556;52.222;4.510;2023-03-01T09:16:14;46.37;;;20.97;;
27013;SDS011;14556;52.222;4.510;2023-03-01T09:18:40;47.43;;;19.60;;
27013;SDS011;14556;52.222;4.510;2023-03-01T09:23:34;47.23;;;19.90;;
27013;SDS011;14556;52.222;4.510;2023-03-01T09:26:02;48.10;;;20.70;;
27013;SDS011;14556;52.222;4.510;2023-03-01T09:28:29;56.93;;;22.87;;
27013;SDS011;14556;52.222;4.510;2023-03-01T09:30:59;52.67;;;21.00;;
27013;SDS011;14556;52.222;4.510;2023-03-01T09:33:26;51.23;;;21.73;;
27013;SDS011;14556;52.222;4.510;2023-03-01T09:35:59;67.27;;;22.97;;
27013;SDS011;14556;52.222;4.510;2023-03-01T09:38:25;58.83;;;25.83;;
27013;SDS011;14556;52.222;4.510;2023-03-01T09:40:52;60.57;;;24.33;;
27013;SDS011;14556;52.222;4.510;2023-03-01T09:44:05;63.53;;;23.30;;
27013;SDS011;14556;52.222;4.510;2023-03-01T09:46:06;57.77;;;23.87;;
27013;SDS011;14556;52.222;4.510;2023-03-01T09:48:39;48.57;;;21.80;;
27013;SDS011;14556;52.222;4.510;2023-03-01T09:51:07;62.43;;;24.27;;
27013;SDS011;14556;52.222;4.510;2023-03-01T09:53:35;63.67;;;23.67;;
27013;SDS011;14556;52.222;4.510;2023-03-01T10:06:25;48.40;;;20.33;;
27013;SDS011;14556;52.222;4.510;2023-03-01T10:09:13;48.57;;;22.77;;
27013;SDS011;14556;52.222;4.510;2023-03-01T10:11:42;46.50;;;20.73;;
27013;SDS011;14556;52.222;4.510;2023-03-01T10:14:27;50.50;;;21.83;;
27013;SDS011;14556;52.222;4.510;2023-03-01T10:16:57;50.60;;;22.17;;
27013;SDS011;14556;52.222;4.510;2023-03-01T10:19:36;49.37;;;21.73;;
27013;SDS011;14556;52.222;4.510;2023-03-01T10:24:52;55.83;;;26.30;;
27013;SDS011;14556;52.222;4.510;2023-03-01T10:27:23;54.97;;;23.30;;
27013;SDS011;14556;52.222;4.510;2023-03-01T10:32:20;66.50;;;27.40;;
27013;SDS011;14556;52.222;4.510;2023-03-01T10:34:50;61.57;;;26.30;;
27013;SDS011;14556;52.222;4.510;2023-03-01T10:37:17;56.17;;;27.63;;
27013;SDS011;14556;52.222;4.510;2023-03-01T10:39:55;55.33;;;25.27;;
27013;SDS011;14556;52.222;4.510;2023-03-01T10:42:25;55.57;;;24.50;;
27013;SDS011;14556;52.222;4.510;2023-03-01T10:44:52;46.47;;;21.57;;
27013;SDS011;14556;52.222;4.510;2023-03-01T10:47:22;52.00;;;23.60;;
27013;SDS011;14556;52.222;4.510;2023-03-01T10:50:00;41.90;;;21.23;;
27013;SDS011;14556;52.222;4.510;2023-03-01T10:52:35;39.33;;;20.60;;
27013;SDS011;14556;52.222;4.510;2023-03-01T10:57:47;36.20;;;18.07;;
27013;SDS011;14556;52.222;4.510;2023-03-01T11:02:41;27.70;;;15.20;;
27013;SDS011;14556;52.222;4.510;2023-03-01T11:07:54;24.27;;;12.40;;
27013;SDS011;14556;52.222;4.510;2023-03-01T11:10:23;24.97;;;11.87;;
27013;SDS011;14556;52.222;4.510;2023-03-01T11:12:50;25.87;;;12.60;;
27013;SDS011;14556;52.222;4.510;2023-03-01T11:15:24;23.10;;;12.37;;
27013;SDS011;14556;52.222;4.510;2023-03-01T11:17:51;20.07;;;10.70;;
27013;SDS011;14556;52.222;4.510;2023-03-01T11:20:38;21.53;;;10.63;;
27013;SDS011;14556;52.222;4.510;2023-03-01T11:23:05;20.90;;;9.80;;
27013;SDS011;14556;52.222;4.510;2023-03-01T11:25:35;21.17;;;10.10;;
27013;SDS011;14556;52.222;4.510;2023-03-01T11:28:03;16.13;;;9.17;;
27013;SDS011;14556;52.222;4.510;2023-03-01T11:30:32;16.07;;;9.20;;
27013;SDS011;14556;52.222;4.510;2023-03-01T11:35:29;12.27;;;7.83;;
27013;SDS011;14556;52.222;4.510;2023-03-01T11:38:02;14.57;;;7.80;;
27013;SDS011;14556;52.222;4.510;2023-03-01T11:40:33;15.97;;;8.37;;
27013;SDS011;14556;52.222;4.510;2023-03-01T11:45:29;12.00;;;6.80;;
27013;SDS011;14556;52.222;4.510;2023-03-01T11:48:13;11.43;;;6.83;;
27013;SDS011;14556;52.222;4.510;2023-03-01T11:50:47;13.73;;;6.90;;
27013;SDS011;14556;52.222;4.510;2023-03-01T11:53:33;14.67;;;6.77;;
27013;SDS011;14556;52.222;4.510;2023-03-01T11:58:36;14.20;;;6.37;;
27013;SDS011;14556;52.222;4.510;2023-03-01T12:09:28;12.90;;;6.23;;
27013;SDS011;14556;52.222;4.510;2023-03-01T12:22:05;9.47;;;6.67;;
27013;SDS011;14556;52.222;4.510;2023-03-01T12:27:08;10.23;;;6.53;;
27013;SDS011;14556;52.222;4.510;2023-03-01T12:30:01;11.87;;;7.30;;
27013;SDS011;14556;52.222;4.510;2023-03-01T12:32:43;11.70;;;7.70;;
27013;SDS011;14556;52.222;4.510;2023-03-01T12:38:01;12.20;;;7.57;;
27013;SDS011;14556;52.222;4.510;2023-03-01T12:43:10;12.80;;;8.13;;
27013;SDS011;14556;52.222;4.510;2023-03-01T12:50:51;16.50;;;8.37;;
27013;SDS011;14556;52.222;4.510;2023-03-01T12:53:22;13.97;;;7.80;;
27013;SDS011;14556;52.222;4.510;2023-03-01T12:55:50;13.17;;;7.30;;
27013;SDS011;14556;52.222;4.510;2023-03-01T12:58:23;13.60;;;6.97;;
27013;SDS011;14556;52.222;4.510;2023-03-01T13:01:08;12.77;;;7.47;;
27013;SDS011;14556;52.222;4.510;2023-03-01T13:06:29;12.43;;;7.20;;
27013;SDS011;14556;52.222;4.510;2023-03-01T13:09:30;14.43;;;6.67;;
27013;SDS011;14556;52.222;4.510;2023-03-01T13:11:54;12.30;;;7.33;;
27013;SDS011;14556;52.222;4.510;2023-03-01T13:16:47;13.07;;;7.43;;
27013;SDS011;14556;52.222;4.510;2023-03-01T13:19:16;15.00;;;7.67;;
27013;SDS011;14556;52.222;4.510;2023-03-01T13:21:43;15.07;;;7.63;;
27013;SDS011;14556;52.222;4.510;2023-03-01T13:24:27;14.10;;;7.77;;
27013;SDS011;14556;52.222;4.510;2023-03-01T13:29:49;14.33;;;7.43;;
27013;SDS011;14556;52.222;4.510;2023-03-01T13:32:22;12.00;;;7.10;;
27013;SDS011;14556;52.222;4.510;2023-03-01T13:37:45;11.07;;;7.50;;
27013;SDS011;14556;52.222;4.510;2023-03-01T13:42:43;17.10;;;7.90;;
27013;SDS011;14556;52.222;4.510;2023-03-01T13:45:41;14.57;;;7.93;;
27013;SDS011;14556;52.222;4.510;2023-03-01T13:48:43;14.90;;;8.33;;
27013;SDS011;14556;52.222;4.510;2023-03-01T13:51:02;14.97;;;7.67;;
27013;SDS011;14556;52.222;4.510;2023-03-01T13:53:30;15.07;;;7.13;;
27013;SDS011;14556;52.222;4.510;2023-03-01T13:55:58;12.93;;;7.13;;
27013;SDS011;14556;52.222;4.510;2023-03-01T13:58:27;11.87;;;7.17;;
27013;SDS011;14556;52.222;4.510;2023-03-01T14:01:04;12.03;;;7.40;;
27013;SDS011;14556;52.222;4.510;2023-03-01T14:03:32;10.33;;;6.00;;
27013;SDS011;14556;52.222;4.510;2023-03-01T14:06:00;8.83;;;5.93;;
27013;SDS011;14556;52.222;4.510;2023-03-01T14:08:39;11.57;;;6.20;;
27013;SDS011;14556;52.222;4.510;2023-03-01T14:19:21;9.63;;;4.87;;
27013;SDS011;14556;52.222;4.510;2023-03-01T14:22:42;8.93;;;5.63;;
27013;SDS011;14556;52.222;4.510;2023-03-01T14:27:16;8.90;;;5.73;;
27013;SDS011;14556;52.222;4.510;2023-03-01T14:29:43;10.23;;;5.73;;
27013;SDS011;14556;52.222;4.510;2023-03-01T14:34:48;10.80;;;5.67;;
27013;SDS011;14556;52.222;4.510;2023-03-01T14:37:25;8.30;;;4.87;;
27013;SDS011;14556;52.222;4.510;2023-03-01T14:39:53;11.00;;;5.80;;
27013;SDS011;14556;52.222;4.510;2023-03-01T14:42:20;9.43;;;5.27;;
27013;SDS011;14556;52.222;4.510;2023-03-01T14:44:48;8.60;;;5.03;;
27013;SDS011;14556;52.222;4.510;2023-03-01T14:47:25;13.03;;;6.53;;
27013;SDS011;14556;52.222;4.510;2023-03-01T14:49:54;12.00;;;5.90;;
27013;SDS011;14556;52.222;4.510;2023-03-01T14:52:25;11.03;;;6.13;;
27013;SDS011;14556;52.222;4.510;2023-03-01T14:54:54;10.97;;;6.70;;
27013;SDS011;14556;52.222;4.510;2023-03-01T14:57:22;11.33;;;6.37;;
27013;SDS011;14556;52.222;4.510;2023-03-01T14:59:52;11.00;;;5.83;;
27013;SDS011;14556;52.222;4.510;2023-03-01T15:02:21;12.30;;;6.43;;
27013;SDS011;14556;52.222;4.510;2023-03-01T15:04:50;10.67;;;6.77;;
27013;SDS011;14556;52.222;4.510;2023-03-01T15:07:17;12.43;;;7.20;;
27013;SDS011;14556;52.222;4.510;2023-03-01T15:09:44;11.73;;;6.53;;
27013;SDS011;14556;52.222;4.510;2023-03-01T15:14:56;12.93;;;7.40;;
27013;SDS011;14556;52.222;4.510;2023-03-01T15:19:56;9.33;;;5.93;;
27013;SDS011;14556;52.222;4.510;2023-03-01T15:22:23;13.27;;;5.97;;
27013;SDS011;14556;52.222;4.510;2023-03-01T15:24:50;11.60;;;6.23;;
27013;SDS011;14556;52.222;4.510;2023-03-01T15:27:18;11.60;;;5.90;;
27013;SDS011;14556;52.222;4.510;2023-03-01T15:29:52;10.27;;;6.17;;
27013;SDS011;14556;52.222;4.510;2023-03-01T15:34:49;10.93;;;5.87;;
27013;SDS011;14556;52.222;4.510;2023-03-01T15:40:01;8.10;;;5.70;;
27013;SDS011;14556;52.222;4.510;2023-03-01T15:47:41;11.70;;;6.10;;
27013;SDS011;14556;52.222;4.510;2023-03-01T15:50:16;8.63;;;5.30;;
27013;SDS011;14556;52.222;4.510;2023-03-01T15:52:43;9.93;;;5.97;;
27013;SDS011;14556;52.222;4.510;2023-03-01T15:55:43;8.63;;;5.80;;
27013;SDS011;14556;52.222;4.510;2023-03-01T15:58:04;13.67;;;5.73;;
27013;SDS011;14556;52.222;4.510;2023-03-01T16:00:32;12.97;;;5.53;;
27013;SDS011;14556;52.222;4.510;2023-03-01T16:02:59;9.87;;;5.60;;
27013;SDS011;14556;52.222;4.510;2023-03-01T16:05:27;8.03;;;5.17;;
27013;SDS011;14556;52.222;4.510;2023-03-01T16:07:54;9.00;;;5.23;;
27013;SDS011;14556;52.222;4.510;2023-03-01T16:10:21;9.43;;;5.37;;
27013;SDS011;14556;52.222;4.510;2023-03-01T16:12:48;9.13;;;5.37;;
27013;SDS011;14556;52.222;4.510;2023-03-01T16:15:23;7.87;;;4.53;;
27013;SDS011;14556;52.222;4.510;2023-03-01T16:17:50;7.53;;;4.60;;
27013;SDS011;14556;52.222;4.510;2023-03-01T16:20:17;12.70;;;5.00;;
27013;SDS011;14556;52.222;4.510;2023-03-01T16:22:53;8.83;;;4.93;;
27013;SDS011;14556;52.222;4.510;2023-03-01T16:25:20;7.87;;;4.90;;
27013;SDS011;14556;52.222;4.510;2023-03-01T16:27:47;10.10;;;5.83;;
27013;SDS011;14556;52.222;4.510;2023-03-01T16:30:15;10.37;;;5.40;;
27013;SDS011;14556;52.222;4.510;2023-03-01T16:32:43;8.17;;;5.13;;
27013;SDS011;14556;52.222;4.510;2023-03-01T16:35:10;7.97;;;4.20;;
27013;SDS011;14556;52.222;4.510;2023-03-01T16:37:37;9.37;;;4.80;;
27013;SDS011;14556;52.222;4.510;2023-03-01T16:40:04;8.83;;;4.80;;